Time;durP1;ratioP1;P1;durP2;ratioP2;P2;SDS_P1;SDS_P2;PMS_P1;PMS_P2;Temp;Humidity;BMP_temperature;BMP_pressure;BME280_temperature;BME280_humidity;BME280_pressure;Samples;Min_cycle;Max_cycle;Signal;HPM_P1;HPM_P2
2023/07/30 00:02:25;;;;;;;7.10;3.60;;;23.00;57.50;;;;;;4950862;28;20031;-69
2023/07/30 00:04:53;;;;;;;5.88;3.40;;;23.20;56.60;;;;;;4954450;28;20034;-69
2023/07/30 00:07:20;;;;;;;6.50;3.67;;;23.20;56.70;;;;;;4952193;28;20118;-69
2023/07/30 00:09:47;;;;;;;6.15;3.50;;;23.00;58.40;;;;;;4953374;28;20110;-69
2023/07/30 00:12:15;;;;;;;5.78;2.90;;;23.80;55.50;;;;;;4944270;28;20042;-69
2023/07/30 00:14:43;;;;;;;5.93;3.15;;;23.60;56.00;;;;;;4948128;28;20399;-70
2023/07/30 00:17:10;;;;;;;4.53;2.65;;;23.60;58.20;;;;;;4947241;28;20031;-69
2023/07/30 00:19:37;;;;;;;6.07;2.58;;;24.30;55.20;;;;;;4955177;28;20038;-68
2023/07/30 00:22:05;;;;;;;6.40;2.67;;;24.20;55.20;;;;;;4947195;28;20659;-69
2023/07/30 00:24:32;;;;;;;6.43;2.92;;;25.30;53.10;;;;;;4955627;28;20164;-69
2023/07/30 00:26:59;;;;;;;3.65;2.10;;;25.40;53.10;;;;;;4951023;28;20027;-68
2023/07/30 00:29:27;;;;;;;4.28;2.10;;;25.50;52.00;;;;;;4950783;28;20432;-69
2023/07/30 00:31:54;;;;;;;4.07;2.20;;;25.40;52.60;;;;;;4963138;28;20043;-69
2023/07/30 00:34:21;;;;;;;4.13;2.10;;;25.10;52.70;;;;;;4958625;28;20031;-69
2023/07/30 00:36:49;;;;;;;3.80;2.13;;;25.80;52.30;;;;;;4951755;28;20029;-68
2023/07/30 00:39:16;;;;;;;4.75;2.40;;;25.90;51.20;;;;;;4953292;28;20038;-69
2023/07/30 00:41:45;;;;;;;3.63;1.92;;;26.00;51.00;;;;;;4947873;28;20103;-69
2023/07/30 00:44:13;;;;;;;3.20;1.95;;;26.10;51.90;;;;;;4955356;28;20065;-68
2023/07/30 00:46:40;;;;;;;3.80;1.75;;;26.50;50.80;;;;;;4945410;28;20034;-69
2023/07/30 00:49:08;;;;;;;5.72;2.20;;;27.00;49.50;;;;;;4954081;28;20038;-69
2023/07/30 00:51:35;;;;;;;2.58;1.60;;;26.70;49.60;;;;;;4956072;28;20038;-69
2023/07/30 00:54:03;;;;;;;2.67;1.77;;;26.60;50.80;;;;;;4955178;28;20038;-69
2023/07/30 00:56:31;;;;;;;3.58;1.98;;;26.90;50.10;;;;;;4970739;28;20050;-69
2023/07/30 00:58:58;;;;;;;9.13;1.73;;;26.80;50.60;;;;;;4950850;28;20038;-69
2023/07/30 01:01:26;;;;;;;1.95;1.20;;;27.60;49.20;;;;;;4949033;28;20035;-68
2023/07/30 01:03:54;;;;;;;4.07;1.63;;;27.20;47.90;;;;;;4950704;28;20023;-69
2023/07/30 01:06:21;;;;;;;3.75;1.65;;;26.80;49.90;;;;;;4935342;28;20035;-69
2023/07/30 01:08:49;;;;;;;8.00;1.80;;;27.50;49.00;;;;;;4947365;28;20180;-69
2023/07/30 01:11:18;;;;;;;3.25;1.30;;;27.80;48.30;;;;;;4949133;28;20039;-70
2023/07/30 01:13:45;;;;;;;3.42;1.65;;;27.40;48.90;;;;;;4950802;28;20027;-69
2023/07/30 01:16:13;;;;;;;4.40;1.40;;;27.80;48.00;;;;;;4952549;28;20494;-69
2023/07/30 01:18:40;;;;;;;4.38;1.75;;;26.90;48.50;;;;;;4951113;28;20030;-69
2023/07/30 01:21:07;;;;;;;6.78;1.42;;;26.70;50.30;;;;;;4948726;28;20058;-69
2023/07/30 01:23:35;;;;;;;2.38;1.10;;;27.40;48.70;;;;;;4948006;28;20015;-69
2023/07/30 01:26:20;;;;;;;5.00;1.30;;;27.60;48.90;;;;;;4952341;28;20039;-70
2023/07/30 01:28:51;;;;;;;3.85;1.05;;;27.90;48.20;;;;;;4950118;28;20039;-67
2023/07/30 01:31:19;;;;;;;5.82;0.98;;;28.30;46.80;;;;;;4962851;28;20144;-67
2023/07/30 01:33:49;;;;;;;2.70;0.70;;;28.40;46.40;;;;;;4953116;28;20464;-67
2023/07/30 01:36:18;;;;;;;1.58;0.70;;;28.20;46.50;;;;;;4952467;28;20051;-69
2023/07/30 01:38:45;;;;;;;1.77;0.82;;;28.10;46.60;;;;;;4949224;28;20462;-67
2023/07/30 01:41:13;;;;;;;1.40;0.80;;;28.40;46.00;;;;;;4950378;28;20035;-67
2023/07/30 01:43:40;;;;;;;1.17;0.70;;;28.40;45.80;;;;;;4952029;28;20123;-67
2023/07/30 01:46:07;;;;;;;3.28;0.70;;;28.30;46.30;;;;;;4949547;28;20181;-67
2023/07/30 01:48:35;;;;;;;2.28;0.90;;;27.80;47.40;;;;;;4946180;28;20031;-69
2023/07/30 01:51:02;;;;;;;4.78;1.00;;;27.80;48.40;;;;;;4948159;28;20081;-68
2023/07/30 01:53:29;;;;;;;3.58;1.17;;;28.00;47.50;;;;;;4945749;28;20075;-68
2023/07/30 01:55:57;;;;;;;2.85;1.00;;;28.20;47.40;;;;;;4950369;28;20024;-68
2023/07/30 01:58:27;;;;;;;3.17;0.90;;;28.60;47.40;;;;;;4947580;28;20058;-68
2023/07/30 02:00:54;;;;;;;2.90;1.13;;;28.70;46.40;;;;;;4948806;28;20031;-68
2023/07/30 02:03:22;;;;;;;2.42;0.98;;;28.70;46.70;;;;;;4952121;28;20480;-68
2023/07/30 02:05:49;;;;;;;3.40;1.15;;;29.20;46.30;;;;;;4944760;28;20035;-68
2023/07/30 02:08:16;;;;;;;3.95;0.80;;;29.90;44.40;;;;;;4950704;28;20034;-68
2023/07/30 02:10:44;;;;;;;2.20;1.00;;;29.60;44.20;;;;;;4933357;28;20469;-67
2023/07/30 02:13:11;;;;;;;3.03;0.98;;;29.50;44.10;;;;;;4949764;28;20481;-68
2023/07/30 02:15:42;;;;;;;3.83;0.85;;;29.60;44.10;;;;;;4955990;28;20081;-67
2023/07/30 02:18:10;;;;;;;1.40;0.70;;;29.50;44.30;;;;;;4948641;28;21137;-68
2023/07/30 02:20:37;;;;;;;1.38;0.77;;;28.60;45.50;;;;;;4930628;28;20043;-68
2023/07/30 02:23:05;;;;;;;1.63;0.88;;;28.00;45.50;;;;;;4949492;28;20027;-68
2023/07/30 02:25:32;;;;;;;3.03;0.70;;;27.90;47.10;;;;;;4951700;28;20031;-68
2023/07/30 02:28:01;;;;;;;4.00;0.90;;;28.20;46.10;;;;;;4948535;28;20035;-68
2023/07/30 02:30:29;;;;;;;3.13;0.85;;;28.40;44.70;;;;;;4951058;28;20114;-69
2023/07/30 02:32:56;;;;;;;2.08;0.88;;;28.40;44.80;;;;;;4948563;28;20118;-68
2023/07/30 02:35:24;;;;;;;2.97;0.80;;;28.30;46.40;;;;;;4945658;28;20031;-68
2023/07/30 02:37:51;;;;;;;0.90;0.60;;;28.70;42.70;;;;;;4949800;28;20035;-68
2023/07/30 02:40:18;;;;;;;6.32;0.60;;;28.70;42.40;;;;;;4949639;28;20104;-68
2023/07/30 02:42:46;;;;;;;1.23;0.70;;;28.50;41.20;;;;;;4949634;28;20039;-68
2023/07/30 02:45:13;;;;;;;1.80;0.75;;;28.30;41.30;;;;;;4948510;28;20094;-68
2023/07/30 02:47:40;;;;;;;2.42;0.60;;;27.90;42.10;;;;;;4946771;28;20031;-68
2023/07/30 02:50:08;;;;;;;1.75;0.80;;;27.90;41.60;;;;;;4949748;28;20453;-69
2023/07/30 02:52:36;;;;;;;2.90;0.95;;;27.70;41.10;;;;;;4946553;28;20444;-69
2023/07/30 02:55:03;;;;;;;0.95;0.50;;;27.20;41.00;;;;;;4950293;28;20127;-68
2023/07/30 02:57:30;;;;;;;1.67;0.80;;;26.70;41.50;;;;;;4952241;28;20102;-68
2023/07/30 02:59:58;;;;;;;2.58;0.70;;;26.70;41.70;;;;;;4947782;28;20027;-68
2023/07/30 03:02:25;;;;;;;1.73;0.70;;;26.70;41.80;;;;;;4949021;28;20031;-68
2023/07/30 03:04:53;;;;;;;0.65;0.43;;;26.80;41.40;;;;;;4951396;28;20035;-69
2023/07/30 03:07:20;;;;;;;0.82;0.47;;;26.60;41.40;;;;;;4948228;28;20039;-69
2023/07/30 03:09:47;;;;;;;2.15;0.90;;;26.40;41.70;;;;;;4951213;28;20369;-68
2023/07/30 03:12:15;;;;;;;1.38;0.80;;;26.60;42.10;;;;;;4947861;28;20500;-68
2023/07/30 03:14:42;;;;;;;2.17;0.60;;;26.50;42.10;;;;;;4953358;28;20027;-67
2023/07/30 03:17:09;;;;;;;1.20;0.50;;;26.40;42.70;;;;;;4951509;28;20055;-69
2023/07/30 03:19:37;;;;;;;3.70;0.60;;;26.40;42.80;;;;;;4949713;28;20110;-67
2023/07/30 03:22:04;;;;;;;3.97;0.80;;;26.80;42.30;;;;;;4946266;28;20043;-68
2023/07/30 03:24:31;;;;;;;3.22;1.15;;;26.90;42.00;;;;;;4948613;28;20031;-67
2023/07/30 03:26:59;;;;;;;1.15;0.70;;;27.10;42.10;;;;;;4952031;28;20028;-69
2023/07/30 03:29:26;;;;;;;1.50;0.63;;;27.10;42.30;;;;;;4950633;28;20031;-67
2023/07/30 03:31:53;;;;;;;3.67;0.68;;;26.70;42.30;;;;;;4951409;28;20063;-67
2023/07/30 03:34:21;;;;;;;2.97;0.70;;;26.50;42.80;;;;;;4953335;28;20053;-68
2023/07/30 03:36:48;;;;;;;1.92;0.63;;;26.20;43.50;;;;;;4952625;28;20062;-68
2023/07/30 03:39:15;;;;;;;1.83;0.88;;;26.30;42.80;;;;;;4955819;28;20073;-67
2023/07/30 03:41:43;;;;;;;1.98;0.80;;;26.00;43.00;;;;;;4953116;28;20042;-67
2023/07/30 03:44:10;;;;;;;2.17;0.55;;;25.70;43.70;;;;;;4947874;28;20464;-68
2023/07/30 03:46:37;;;;;;;1.67;1.00;;;25.60;44.10;;;;;;4951861;28;20031;-68
2023/07/30 03:49:05;;;;;;;1.48;0.63;;;25.50;44.20;;;;;;4951466;28;20039;-69
2023/07/30 03:51:33;;;;;;;2.35;0.73;;;25.60;44.70;;;;;;4950437;28;20074;-68
2023/07/30 03:54:00;;;;;;;2.40;0.70;;;25.50;45.20;;;;;;4951629;28;20038;-68
2023/07/30 03:56:28;;;;;;;1.23;0.70;;;25.70;44.10;;;;;;4950601;28;20027;-68
2023/07/30 03:58:55;;;;;;;1.67;0.70;;;25.50;44.10;;;;;;4955417;28;20035;-66
2023/07/30 04:01:22;;;;;;;1.17;0.80;;;25.40;44.60;;;;;;4953830;28;20050;-67
2023/07/30 04:03:50;;;;;;;3.90;0.65;;;25.60;44.60;;;;;;4951152;28;21526;-66
2023/07/30 04:06:17;;;;;;;1.45;0.80;;;25.50;44.20;;;;;;4951749;28;20035;-69
2023/07/30 04:08:44;;;;;;;1.33;0.50;;;25.50;44.30;;;;;;4952270;28;20057;-67
2023/07/30 04:11:12;;;;;;;3.17;0.50;;;25.50;44.30;;;;;;4956484;28;20122;-67
2023/07/30 04:13:40;;;;;;;4.18;1.00;;;25.60;43.80;;;;;;4951728;28;20122;-67
2023/07/30 04:16:08;;;;;;;2.72;0.73;;;25.80;43.80;;;;;;4952504;28;20397;-67
2023/07/30 04:18:35;;;;;;;0.98;0.70;;;25.60;44.00;;;;;;4948925;28;20493;-67
2023/07/30 04:21:02;;;;;;;0.95;0.60;;;25.60;44.50;;;;;;4952132;28;20039;-69
2023/07/30 04:23:30;;;;;;;1.08;0.70;;;25.40;44.50;;;;;;4953649;28;20079;-67
2023/07/30 04:25:57;;;;;;;2.55;0.80;;;25.20;44.80;;;;;;4959965;28;20097;-68
2023/07/30 04:28:24;;;;;;;2.58;1.00;;;25.10;45.40;;;;;;4930859;28;20046;-67
2023/07/30 04:30:52;;;;;;;1.75;0.73;;;25.20;44.00;;;;;;4953308;28;20027;-67
2023/07/30 04:33:19;;;;;;;1.98;0.60;;;25.20;44.50;;;;;;4950231;28;20031;-67
2023/07/30 04:35:46;;;;;;;1.95;0.82;;;25.20;43.70;;;;;;4948885;28;20492;-67
2023/07/30 04:38:14;;;;;;;1.10;0.75;;;25.20;43.60;;;;;;4947211;28;20035;-67
2023/07/30 04:40:43;;;;;;;1.70;0.70;;;25.20;43.90;;;;;;4951510;28;20046;-68
2023/07/30 04:43:10;;;;;;;1.95;0.93;;;25.20;43.90;;;;;;4952691;28;20146;-70
2023/07/30 04:45:37;;;;;;;2.50;0.90;;;25.20;43.40;;;;;;4950192;28;20041;-69
2023/07/30 04:48:05;;;;;;;1.35;0.80;;;25.30;43.60;;;;;;4951832;28;20031;-68
2023/07/30 04:50:32;;;;;;;3.13;0.70;;;25.30;43.40;;;;;;4951301;28;20031;-68
2023/07/30 04:53:00;;;;;;;2.25;0.88;;;25.30;43.10;;;;;;4946972;28;20069;-68
2023/07/30 04:55:27;;;;;;;2.92;0.80;;;25.30;43.10;;;;;;4959880;28;20115;-68
2023/07/30 04:57:54;;;;;;;2.17;0.95;;;25.30;42.60;;;;;;4950612;28;20078;-67
2023/07/30 05:00:22;;;;;;;3.47;0.85;;;25.10;42.70;;;;;;4953819;28;20027;-68
2023/07/30 05:02:49;;;;;;;1.00;0.68;;;25.10;42.80;;;;;;4951403;28;20551;-68
2023/07/30 05:05:16;;;;;;;2.58;1.02;;;25.10;43.00;;;;;;4946490;28;20031;-68
2023/07/30 05:07:44;;;;;;;1.55;0.73;;;25.10;42.50;;;;;;4947882;28;20425;-68
2023/07/30 05:10:11;;;;;;;2.55;0.93;;;25.10;42.20;;;;;;4953652;28;20102;-68
2023/07/30 05:12:38;;;;;;;1.35;0.75;;;25.10;42.30;;;;;;4951734;28;20035;-68
2023/07/30 05:15:06;;;;;;;2.42;0.90;;;25.10;42.70;;;;;;4954714;28;20031;-66
2023/07/30 05:17:34;;;;;;;1.42;0.82;;;25.10;43.30;;;;;;4948662;28;20031;-67
2023/07/30 05:20:01;;;;;;;1.58;1.08;;;25.20;43.10;;;;;;4950149;28;20070;-69
2023/07/30 05:22:29;;;;;;;2.03;0.85;;;25.20;43.20;;;;;;4957265;28;20031;-69
2023/07/30 05:24:56;;;;;;;3.75;1.00;;;25.30;43.50;;;;;;4950477;28;20035;-68
2023/07/30 05:27:24;;;;;;;2.45;0.82;;;25.20;43.60;;;;;;4949160;28;20035;-68
2023/07/30 05:29:51;;;;;;;2.92;0.70;;;25.10;43.30;;;;;;4950196;28;20054;-68
2023/07/30 05:32:18;;;;;;;2.15;0.70;;;25.00;43.50;;;;;;4948935;28;20027;-69
2023/07/30 05:34:46;;;;;;;1.45;0.80;;;24.90;44.00;;;;;;4951988;28;20061;-66
2023/07/30 05:37:13;;;;;;;1.25;0.70;;;25.00;43.80;;;;;;4947383;28;20106;-67
2023/07/30 05:39:41;;;;;;;4.38;1.10;;;25.00;42.90;;;;;;4950118;28;20380;-68
2023/07/30 05:42:08;;;;;;;2.40;0.90;;;25.00;40.60;;;;;;4950384;28;20163;-68
2023/07/30 05:44:35;;;;;;;4.05;0.80;;;25.00;40.40;;;;;;4952076;28;20381;-68
2023/07/30 05:47:03;;;;;;;2.75;0.90;;;25.00;40.30;;;;;;4951232;28;20138;-68
2023/07/30 05:49:30;;;;;;;2.78;0.63;;;25.00;40.00;;;;;;4947779;28;20537;-68
2023/07/30 05:51:57;;;;;;;1.98;0.70;;;25.00;40.50;;;;;;4947166;28;20035;-68
2023/07/30 05:54:25;;;;;;;1.27;0.68;;;25.00;40.40;;;;;;4952048;28;20023;-68
2023/07/30 05:56:53;;;;;;;1.33;0.55;;;25.10;40.00;;;;;;4942658;28;20055;-68
2023/07/30 05:59:21;;;;;;;1.95;0.55;;;25.10;39.80;;;;;;4949900;28;20039;-68
2023/07/30 06:01:48;;;;;;;3.17;0.80;;;25.10;40.10;;;;;;4948321;28;20101;-67
2023/07/30 06:04:15;;;;;;;3.15;1.33;;;25.20;40.00;;;;;;4961565;28;20479;-67
2023/07/30 06:06:43;;;;;;;1.83;0.70;;;25.10;40.20;;;;;;4950369;28;20034;-67
2023/07/30 06:09:11;;;;;;;1.50;0.70;;;25.10;40.80;;;;;;4943755;28;20039;-67
2023/07/30 06:11:38;;;;;;;1.80;0.90;;;25.20;40.40;;;;;;4948282;28;20062;-67
2023/07/30 06:14:06;;;;;;;4.32;0.90;;;25.30;40.50;;;;;;4945317;28;20023;-68
2023/07/30 06:16:33;;;;;;;1.38;0.90;;;25.30;40.40;;;;;;4943117;28;20042;-67
2023/07/30 06:19:00;;;;;;;1.35;0.70;;;25.30;40.20;;;;;;4941075;28;20049;-68
2023/07/30 06:21:28;;;;;;;5.22;0.77;;;25.10;40.60;;;;;;4945220;28;20035;-68
2023/07/30 06:23:55;;;;;;;1.27;0.80;;;25.10;41.20;;;;;;4947088;28;20027;-69
2023/07/30 06:26:22;;;;;;;3.05;1.05;;;25.10;40.60;;;;;;4953001;28;20389;-67
2023/07/30 06:28:49;;;;;;;2.25;1.10;;;25.00;40.80;;;;;;4954233;28;20110;-67
2023/07/30 06:31:17;;;;;;;2.03;0.98;;;24.80;41.00;;;;;;4950161;28;20031;-68
2023/07/30 06:33:44;;;;;;;2.08;0.70;;;24.70;41.20;;;;;;4948955;28;20073;-68
2023/07/30 06:36:11;;;;;;;4.18;0.70;;;24.60;41.60;;;;;;4942786;28;20490;-67
2023/07/30 06:38:39;;;;;;;4.13;0.70;;;24.50;41.90;;;;;;4947052;28;20039;-67
2023/07/30 06:41:06;;;;;;;2.90;0.88;;;24.40;41.50;;;;;;4930611;28;20050;-68
2023/07/30 06:43:33;;;;;;;3.33;0.70;;;24.30;41.70;;;;;;4946602;28;20464;-67
2023/07/30 06:46:01;;;;;;;1.85;0.73;;;24.10;42.10;;;;;;4947645;28;20023;-67
2023/07/30 06:48:28;;;;;;;2.85;0.75;;;24.00;42.30;;;;;;4948900;28;20035;-67
2023/07/30 06:50:55;;;;;;;1.77;0.85;;;23.90;42.20;;;;;;4950811;28;20036;-67
2023/07/30 06:53:23;;;;;;;9.90;0.73;;;23.70;42.20;;;;;;4949159;28;20042;-67
2023/07/30 06:55:50;;;;;;;3.80;2.10;;;23.60;42.30;;;;;;4948663;28;20050;-67
2023/07/30 06:58:17;;;;;;;12.43;2.03;;;23.40;42.70;;;;;;4948530;28;20117;-69
2023/07/30 07:00:45;;;;;;;2.63;1.15;;;23.30;43.30;;;;;;4950533;28;20039;-68
2023/07/30 07:03:12;;;;;;;3.08;1.30;;;23.20;43.60;;;;;;4948296;28;20031;-69
2023/07/30 07:05:39;;;;;;;9.27;4.93;;;23.20;44.30;;;;;;4954862;28;20051;-69
2023/07/30 07:08:07;;;;;;;5.05;3.30;;;23.30;43.80;;;;;;4950327;28;20066;-69
2023/07/30 07:10:34;;;;;;;263.17;227.82;;;23.50;45.00;;;;;;4955502;28;20027;-68
2023/07/30 07:13:01;;;;;;;586.38;442.55;;;23.80;44.40;;;;;;4951015;28;20115;-69
2023/07/30 07:15:29;;;;;;;742.63;270.55;;;24.00;43.30;;;;;;4949877;28;20086;-69
2023/07/30 07:17:56;;;;;;;291.20;95.57;;;24.70;41.90;;;;;;4946089;28;20153;-67
2023/07/30 07:20:24;;;;;;;282.13;121.35;;;24.80;44.20;;;;;;4933182;28;20035;-70
2023/07/30 07:22:51;;;;;;;91.45;27.17;;;24.90;45.10;;;;;;4950393;28;20062;-70
2023/07/30 07:25:28;;;;;;;7.40;2.15;;;25.70;43.70;;;;;;4950101;28;20346;-69
2023/07/30 07:27:55;;;;;;;;;;;25.30;41.20;;;;;;4947781;28;20031;-69
2023/07/30 07:30:22;;;;;;;92.78;59.30;;;25.00;45.90;;;;;;4950506;28;20016;-69
2023/07/30 07:32:53;;;;;;;4.38;2.55;;;25.30;41.40;;;;;;4948904;28;20031;-70
2023/07/30 07:35:21;;;;;;;15.75;9.55;;;24.90;41.00;;;;;;4950544;28;20065;-68
2023/07/30 07:37:48;;;;;;;787.88;505.77;;;24.70;43.00;;;;;;4955572;28;20503;-69
2023/07/30 07:40:16;;;;;;;276.52;250.55;;;25.20;43.30;;;;;;4972090;28;20098;-67
2023/07/30 07:42:43;;;;;;;315.40;232.85;;;25.80;43.70;;;;;;4931844;28;20058;-68
2023/07/30 07:45:11;;;;;;;25.90;23.27;;;25.90;40.90;;;;;;4950506;28;20039;-69
2023/07/30 07:47:38;;;;;;;6.18;2.20;;;25.70;40.10;;;;;;4949790;28;20042;-70
2023/07/30 07:50:07;;;;;;;2.38;1.40;;;24.70;40.90;;;;;;4955735;28;20477;-70
2023/07/30 07:52:34;;;;;;;2.50;1.42;;;24.00;41.90;;;;;;4946646;28;20028;-69
2023/07/30 07:55:01;;;;;;;5.18;0.90;;;23.40;43.10;;;;;;4951504;28;20027;-69
2023/07/30 07:57:29;;;;;;;1.63;1.00;;;23.10;43.60;;;;;;4940708;28;20094;-70
2023/07/30 07:59:57;;;;;;;5.93;1.30;;;22.90;43.90;;;;;;4950264;28;20046;-68
2023/07/30 08:02:25;;;;;;;1.77;1.10;;;22.60;44.60;;;;;;4951892;28;20468;-71
2023/07/30 08:04:52;;;;;;;3.53;1.40;;;22.30;44.90;;;;;;4951982;28;20480;-69
2023/07/30 08:07:19;;;;;;;2.38;1.30;;;22.30;44.90;;;;;;4955384;28;20185;-69
2023/07/30 08:09:47;;;;;;;2.70;1.30;;;22.10;45.60;;;;;;4954040;28;20034;-69
2023/07/30 08:12:14;;;;;;;3.08;1.23;;;22.00;46.00;;;;;;4951011;28;20043;-68
2023/07/30 08:14:41;;;;;;;3.33;1.40;;;21.80;46.30;;;;;;4958712;28;20523;-68
2023/07/30 08:17:09;;;;;;;2.45;1.20;;;21.60;46.50;;;;;;4947583;28;20031;-69
2023/07/30 08:19:36;;;;;;;6.30;3.95;;;21.50;47.10;;;;;;4952877;28;20050;-68
2023/07/30 08:22:03;;;;;;;10.23;5.35;;;21.40;47.40;;;;;;4948911;28;20071;-67
2023/07/30 08:24:31;;;;;;;5.25;2.20;;;21.30;47.50;;;;;;4946123;28;20106;-68
2023/07/30 08:26:59;;;;;;;7.95;3.55;;;21.30;47.60;;;;;;4946618;28;20540;-68
2023/07/30 08:29:27;;;;;;;8.35;4.03;;;21.20;47.80;;;;;;4958306;28;20042;-69
2023/07/30 08:31:54;;;;;;;4.05;2.17;;;21.00;48.10;;;;;;4949679;28;20076;-69
2023/07/30 08:34:23;;;;;;;9.10;2.92;;;20.90;48.60;;;;;;4946368;28;20401;-68
2023/07/30 08:36:50;;;;;;;13.95;6.85;;;20.80;48.70;;;;;;4948586;28;21394;-68
2023/07/30 08:39:18;;;;;;;16.40;9.30;;;20.80;48.80;;;;;;4953447;28;20496;-70
2023/07/30 08:41:46;;;;;;;4.03;2.47;;;20.60;49.40;;;;;;4947220;28;20461;-69
2023/07/30 08:44:14;;;;;;;3.40;1.50;;;20.50;49.50;;;;;;4949105;28;20031;-67
2023/07/30 08:46:42;;;;;;;7.10;3.30;;;20.50;49.40;;;;;;4949140;28;20027;-69
2023/07/30 08:49:09;;;;;;;2.70;1.38;;;20.60;49.60;;;;;;4950723;28;20054;-68
2023/07/30 08:51:38;;;;;;;1.90;1.10;;;20.50;50.10;;;;;;4948955;28;20054;-69
2023/07/30 08:54:06;;;;;;;1.55;0.88;;;20.40;50.10;;;;;;4955480;28;20034;-69
2023/07/30 08:56:34;;;;;;;4.07;1.42;;;20.40;50.50;;;;;;4952370;28;20071;-69
2023/07/30 08:59:02;;;;;;;3.60;1.15;;;20.30;50.70;;;;;;4949033;28;20054;-69
2023/07/30 09:01:35;;;;;;;1.73;0.90;;;20.30;50.90;;;;;;4957655;28;21171;-69
2023/07/30 09:04:02;;;;;;;3.30;0.95;;;20.10;51.40;;;;;;4951762;28;20038;-69
2023/07/30 09:06:30;;;;;;;1.80;1.10;;;20.00;51.80;;;;;;4950119;28;20241;-70
2023/07/30 09:08:58;;;;;;;2.03;1.00;;;19.90;52.20;;;;;;4956380;28;20076;-69
2023/07/30 09:11:28;;;;;;;4.20;0.95;;;19.90;52.10;;;;;;4940503;28;20042;-70
2023/07/30 09:13:56;;;;;;;2.13;1.20;;;19.80;52.40;;;;;;4952647;28;20035;-70
2023/07/30 09:16:27;;;;;;;2.17;0.90;;;19.70;52.60;;;;;;4952021;28;20027;-69
2023/07/30 09:18:54;;;;;;;2.05;0.90;;;19.60;52.80;;;;;;4955982;28;20105;-69
2023/07/30 09:21:34;;;;;;;1.45;0.95;;;19.70;52.90;;;;;;4943790;28;20070;-69
2023/07/30 09:24:07;;;;;;;2.35;1.17;;;19.70;52.80;;;;;;4949488;28;20127;-69
2023/07/30 09:26:46;;;;;;;1.67;0.80;;;19.70;53.20;;;;;;4950151;28;20564;-68
2023/07/30 09:29:14;;;;;;;2.45;0.90;;;19.60;52.50;;;;;;4947569;28;20134;-68
2023/07/30 09:31:51;;;;;;;2.35;0.88;;;19.60;52.70;;;;;;4951203;28;20043;-67
2023/07/30 09:34:19;;;;;;;2.63;1.05;;;19.50;52.80;;;;;;4951385;28;20066;-70
2023/07/30 09:36:47;;;;;;;4.53;1.35;;;19.30;53.20;;;;;;4948295;28;20058;-68
2023/07/30 09:39:21;;;;;;;2.75;1.40;;;19.20;53.50;;;;;;4958460;28;20085;-69
2023/07/30 09:41:51;;;;;;;3.38;1.30;;;19.20;53.70;;;;;;4947831;28;20126;-68
2023/07/30 09:44:20;;;;;;;1.50;1.05;;;19.00;53.70;;;;;;4940332;28;20060;-69
2023/07/30 09:46:51;;;;;;;3.15;1.23;;;19.00;54.20;;;;;;4947155;28;20070;-69
2023/07/30 09:49:19;;;;;;;2.65;1.27;;;18.90;54.30;;;;;;4934589;28;20377;-68
2023/07/30 09:51:46;;;;;;;2.05;1.20;;;18.80;54.50;;;;;;4940037;28;20030;-69
2023/07/30 09:54:15;;;;;;;3.13;1.40;;;18.70;54.70;;;;;;4953192;28;20125;-67
2023/07/30 09:56:43;;;;;;;3.33;1.02;;;18.60;55.00;;;;;;4941058;28;20059;-68
2023/07/30 09:59:11;;;;;;;2.58;1.10;;;18.60;55.20;;;;;;4946923;28;20038;-67
2023/07/30 10:01:46;;;;;;;2.40;1.30;;;18.50;55.20;;;;;;4946730;28;20039;-68
2023/07/30 10:04:13;;;;;;;2.05;0.80;;;18.40;55.50;;;;;;4944721;28;20073;-68
2023/07/30 10:06:46;;;;;;;4.88;1.90;;;18.40;55.90;;;;;;4942849;28;20361;-68
2023/07/30 10:09:16;;;;;;;4.43;2.55;;;18.50;55.40;;;;;;4951481;28;20115;-68
2023/07/30 10:11:46;;;;;;;6.22;2.80;;;18.30;56.00;;;;;;4947131;28;20028;-67
2023/07/30 10:14:15;;;;;;;4.82;2.42;;;18.10;56.50;;;;;;4950741;28;20126;-67
2023/07/30 10:16:53;;;;;;;5.82;3.25;;;18.00;57.10;;;;;;4940904;28;20015;-68
2023/07/30 10:19:27;;;;;;;4.65;2.30;;;18.20;57.40;;;;;;4949461;28;20034;-69
2023/07/30 10:22:13;;;;;;;4.28;1.98;;;18.20;57.30;;;;;;4947111;28;20031;-70
2023/07/30 10:24:41;;;;;;;6.20;2.47;;;17.80;58.00;;;;;;4945163;28;20114;-68
2023/07/30 10:27:23;;;;;;;4.20;1.98;;;17.70;59.20;;;;;;4956584;28;20507;-69
2023/07/30 10:30:08;;;;;;;3.10;1.80;;;17.70;58.70;;;;;;4947889;28;20032;-69
2023/07/30 10:32:42;;;;;;;4.25;1.95;;;17.60;59.90;;;;;;4945604;28;20337;-69
2023/07/30 10:35:29;;;;;;;3.35;1.80;;;17.40;60.30;;;;;;4954727;28;20023;-69
2023/07/30 10:37:57;;;;;;;5.57;1.90;;;17.40;60.60;;;;;;4951576;28;20031;-68
2023/07/30 10:40:24;;;;;;;3.05;1.98;;;17.10;61.30;;;;;;4958322;28;20400;-68
2023/07/30 10:42:52;;;;;;;3.65;1.83;;;16.90;62.30;;;;;;4961132;28;20058;-69
2023/07/30 10:45:19;;;;;;;4.18;2.17;;;16.80;62.60;;;;;;4949234;28;20159;-69
2023/07/30 10:47:47;;;;;;;5.50;2.85;;;16.70;63.00;;;;;;4955181;28;20524;-67
2023/07/30 10:50:16;;;;;;;3.63;2.38;;;16.60;63.70;;;;;;4957677;28;20481;-68
2023/07/30 10:52:43;;;;;;;5.70;2.38;;;16.60;64.50;;;;;;4952210;28;20031;-68
2023/07/30 10:55:11;;;;;;;4.85;2.30;;;16.50;64.30;;;;;;4953481;28;20094;-68
2023/07/30 10:57:40;;;;;;;8.18;2.80;;;16.40;65.20;;;;;;4952933;28;20061;-68
2023/07/30 11:00:08;;;;;;;4.50;2.00;;;16.40;65.50;;;;;;4967326;28;20126;-68
2023/07/30 11:02:35;;;;;;;4.82;2.60;;;16.30;65.60;;;;;;4951487;28;20506;-69
2023/07/30 11:05:13;;;;;;;4.53;2.53;;;16.30;66.20;;;;;;4950616;28;20388;-68
2023/07/30 11:07:51;;;;;;;4.95;2.10;;;16.30;67.00;;;;;;4950682;28;20034;-68
2023/07/30 11:10:18;;;;;;;4.97;2.60;;;16.30;66.50;;;;;;4947777;28;20031;-68
2023/07/30 11:12:49;;;;;;;5.68;2.30;;;16.20;66.70;;;;;;4948425;28;20031;-68
2023/07/30 11:15:16;;;;;;;4.65;2.60;;;16.10;67.00;;;;;;4938261;28;20500;-68
2023/07/30 11:17:45;;;;;;;10.23;3.30;;;16.20;67.20;;;;;;4951651;28;20029;-69
2023/07/30 11:20:33;;;;;;;5.38;3.35;;;15.90;67.80;;;;;;4953578;28;20031;-69
2023/07/30 11:23:00;;;;;;;5.32;3.25;;;15.90;68.80;;;;;;4958774;28;20054;-68
2023/07/30 11:25:28;;;;;;;3.40;2.70;;;15.90;68.30;;;;;;4953820;28;20055;-68
2023/07/30 11:27:55;;;;;;;4.85;2.08;;;15.80;68.20;;;;;;4949087;28;20023;-67
2023/07/30 11:30:23;;;;;;;5.30;2.15;;;15.80;68.20;;;;;;4923871;28;20085;-69
2023/07/30 11:32:51;;;;;;;3.63;2.00;;;15.80;67.80;;;;;;4934328;28;20319;-69
2023/07/30 11:35:18;;;;;;;2.78;1.80;;;15.80;67.60;;;;;;4931598;28;20046;-70
2023/07/30 11:37:46;;;;;;;7.63;2.00;;;16.20;66.30;;;;;;4943800;28;20035;-68
2023/07/30 11:40:13;;;;;;;3.63;1.95;;;16.20;65.90;;;;;;4948464;28;20433;-68
2023/07/30 11:42:42;;;;;;;4.78;1.73;;;16.30;65.50;;;;;;4952535;28;20133;-68
2023/07/30 11:45:20;;;;;;;4.63;1.88;;;16.20;65.60;;;;;;4949991;28;20481;-67
2023/07/30 11:47:48;;;;;;;3.88;2.10;;;16.20;65.40;;;;;;4945649;28;20495;-67
2023/07/30 11:50:16;;;;;;;3.15;1.80;;;16.10;65.40;;;;;;4945844;28;20354;-70
2023/07/30 11:52:57;;;;;;;4.93;2.25;;;16.20;65.10;;;;;;4941863;28;20037;-68
2023/07/30 11:55:37;;;;;;;4.72;2.53;;;16.20;64.80;;;;;;4952057;28;20031;-67
2023/07/30 11:58:05;;;;;;;4.05;2.45;;;16.10;65.00;;;;;;4952134;28;20568;-68
2023/07/30 12:00:36;;;;;;;3.30;2.33;;;16.00;65.30;;;;;;4944441;28;20035;-68
2023/07/30 12:03:09;;;;;;;4.72;2.85;;;15.90;65.70;;;;;;4947796;28;20556;-68
2023/07/30 12:05:38;;;;;;;4.78;2.50;;;15.70;66.30;;;;;;4949386;28;20086;-68
2023/07/30 12:08:12;;;;;;;4.07;2.30;;;15.60;66.70;;;;;;4948103;28;20034;-68
2023/07/30 12:10:52;;;;;;;3.55;2.60;;;15.60;67.10;;;;;;4943804;28;20459;-69
2023/07/30 12:13:22;;;;;;;3.13;2.05;;;15.50;67.50;;;;;;4949107;28;20206;-67
2023/07/30 12:15:57;;;;;;;5.50;2.35;;;15.40;68.10;;;;;;4944967;28;20078;-68
2023/07/30 12:18:25;;;;;;;4.60;2.53;;;15.40;68.40;;;;;;4939946;28;20373;-69
2023/07/30 12:20:53;;;;;;;3.78;2.17;;;15.20;68.80;;;;;;4954802;28;20046;-67
2023/07/30 12:23:21;;;;;;;6.18;1.85;;;15.20;68.90;;;;;;4949827;28;20035;-70
2023/07/30 12:25:49;;;;;;;3.97;1.83;;;15.20;68.90;;;;;;4946234;28;20114;-68
2023/07/30 12:28:16;;;;;;;5.57;2.35;;;15.40;68.30;;;;;;4947086;28;20552;-68
2023/07/30 12:30:44;;;;;;;6.10;1.90;;;15.70;66.90;;;;;;4947613;28;20035;-68
2023/07/30 12:33:11;;;;;;;4.35;1.92;;;15.90;66.30;;;;;;4950331;28;20041;-69
2023/07/30 12:35:38;;;;;;;4.18;2.60;;;16.00;66.10;;;;;;4945542;28;20059;-68
2023/07/30 12:38:06;;;;;;;4.72;1.88;;;15.80;66.50;;;;;;4927995;28;20032;-70
2023/07/30 12:40:33;;;;;;;4.90;2.20;;;15.30;68.50;;;;;;4900938;28;20035;-72
2023/07/30 12:43:04;;;;;;;5.35;2.58;;;14.90;70.50;;;;;;4936902;28;20138;-69
2023/07/30 12:45:32;;;;;;;8.18;3.10;;;14.80;71.40;;;;;;4875512;28;20203;-69
2023/07/30 12:48:01;;;;;;;5.53;3.10;;;14.50;73.10;;;;;;4914525;28;20583;-68
2023/07/30 12:50:28;;;;;;;7.93;3.42;;;14.50;73.10;;;;;;4912969;28;20581;-69
2023/07/30 12:52:56;;;;;;;6.15;3.25;;;14.20;74.50;;;;;;4923834;28;20027;-70